Time;durP1;ratioP1;P1;durP2;ratioP2;P2;SDS_P1;SDS_P2;PMS_P1;PMS_P2;Temp;Humidity;BMP_temperature;BMP_pressure;BME280_temperature;BME280_humidity;BME280_pressure;Samples;Min_cycle;Max_cycle;Signal;HPM_P1;HPM_P2
2022/02/02 00:01:14;;;;;;;4.70;3.10;;;7.70;91.60;;;;;;5047763;28;20423;-73
2022/02/02 00:03:44;;;;;;;4.80;3.20;;;7.70;91.60;;;;;;5046891;28;20196;-72
2022/02/02 00:06:19;;;;;;;7.50;3.60;;;7.70;91.80;;;;;;5046452;28;20480;-71
2022/02/02 00:14:44;;;;;;;5.93;3.20;;;7.60;91.90;;;;;;5029967;28;20813;-72
2022/02/02 00:19:36;;;;;;;7.23;2.67;;;7.60;91.50;;;;;;5041640;28;20447;-72
2022/02/02 00:22:38;;;;;;;6.43;2.90;;;7.60;91.20;;;;;;5050290;28;20242;-73
2022/02/02 00:27:22;;;;;;;5.67;2.70;;;7.70;90.60;;;;;;5045535;28;20467;-72
2022/02/02 00:29:54;;;;;;;2.97;2.13;;;7.70;90.50;;;;;;5051790;28;20307;-71
2022/02/02 00:32:43;;;;;;;4.50;2.40;;;7.70;90.40;;;;;;5053794;28;20477;-72
2022/02/02 00:35:11;;;;;;;5.73;3.30;;;7.70;90.20;;;;;;5047060;28;20410;-72
2022/02/02 00:37:37;;;;;;;3.47;1.93;;;7.60;90.10;;;;;;5034768;28;21127;-72
2022/02/02 00:40:06;;;;;;;4.13;2.27;;;7.70;90.00;;;;;;5051279;28;20422;-73
2022/02/02 00:42:32;;;;;;;3.37;2.17;;;7.70;89.60;;;;;;5050696;28;20219;-73
2022/02/02 00:44:58;;;;;;;3.43;2.23;;;7.70;89.50;;;;;;5051377;28;20514;-71
2022/02/02 00:47:25;;;;;;;2.80;1.80;;;7.80;89.30;;;;;;5053177;28;20558;-73
2022/02/02 00:49:55;;;;;;;4.23;2.03;;;7.80;89.20;;;;;;5075095;28;20440;-73
2022/02/02 00:52:21;;;;;;;3.80;1.90;;;7.80;89.00;;;;;;5094414;28;20428;-73
2022/02/02 00:54:47;;;;;;;3.47;1.93;;;7.80;89.00;;;;;;5094220;28;20445;-74
2022/02/02 00:57:13;;;;;;;4.10;2.27;;;7.80;89.00;;;;;;5094425;28;20842;-73
2022/02/02 00:59:39;;;;;;;4.53;2.10;;;7.80;89.00;;;;;;5094920;28;20440;-72
2022/02/02 01:02:06;;;;;;;4.90;2.57;;;7.80;88.70;;;;;;5094547;28;20456;-74
2022/02/02 01:04:32;;;;;;;7.23;2.63;;;7.90;88.60;;;;;;5093873;28;20630;-73
2022/02/02 01:07:29;;;;;;;4.23;2.17;;;7.90;87.70;;;;;;5093285;28;20512;-72
2022/02/02 01:10:56;;;;;;;5.20;2.10;;;8.00;87.10;;;;;;5095533;28;20215;-73
2022/02/02 01:12:49;;;;;;;4.50;2.10;;;8.00;86.90;;;;;;5087272;28;20421;-73
2022/02/02 01:16:04;;;;;;;3.00;2.00;;;8.00;86.90;;;;;;5094379;28;20409;-72
2022/02/02 01:18:16;;;;;;;4.70;1.90;;;8.10;86.90;;;;;;5086275;28;20448;-72
2022/02/02 01:20:52;;;;;;;4.63;2.13;;;8.10;86.30;;;;;;5092484;28;20486;-72
2022/02/02 01:28:42;;;;;;;3.43;2.13;;;8.30;85.20;;;;;;5098328;28;20614;-73
2022/02/02 01:31:12;;;;;;;10.70;3.07;;;8.30;84.90;;;;;;5095379;28;20425;-72
2022/02/02 01:33:39;;;;;;;3.43;2.20;;;8.20;84.90;;;;;;5091917;28;20556;-72
2022/02/02 01:36:06;;;;;;;6.43;2.10;;;8.30;84.90;;;;;;5092927;28;20421;-72
2022/02/02 01:38:34;;;;;;;5.13;2.07;;;8.30;84.70;;;;;;5093821;28;20448;-72
2022/02/02 01:41:17;;;;;;;3.40;2.00;;;8.30;84.90;;;;;;5092528;28;20425;-72
2022/02/02 01:43:54;;;;;;;3.90;2.30;;;8.30;85.00;;;;;;5094147;28;20425;-72
2022/02/02 01:46:21;;;;;;;6.33;2.37;;;8.30;84.70;;;;;;5093788;28;20444;-72
2022/02/02 01:54:16;;;;;;;5.50;2.20;;;8.30;85.20;;;;;;5093897;28;20512;-71
2022/02/02 01:56:42;;;;;;;2.93;2.27;;;8.30;85.50;;;;;;5093592;28;20293;-72
2022/02/02 02:01:43;;;;;;;8.00;3.93;;;8.30;85.60;;;;;;5092399;28;20179;-72
2022/02/02 02:04:09;;;;;;;7.90;2.57;;;8.30;86.00;;;;;;5091980;28;20421;-72
2022/02/02 02:06:34;;;;;;;4.73;2.90;;;8.30;86.00;;;;;;5090979;28;20183;-72
2022/02/02 02:09:00;;;;;;;6.10;3.40;;;8.40;85.70;;;;;;5092168;28;20219;-72
2022/02/02 02:11:26;;;;;;;5.63;2.93;;;8.40;86.00;;;;;;5091943;28;20233;-73
2022/02/02 02:16:29;;;;;;;5.30;2.40;;;8.40;86.00;;;;;;5093818;28;20182;-72
2022/02/02 02:18:57;;;;;;;10.83;4.03;;;8.40;86.00;;;;;;5092772;28;20959;-72
2022/02/02 02:21:24;;;;;;;9.90;3.40;;;8.40;85.90;;;;;;5091914;28;20776;-72
2022/02/02 02:23:50;;;;;;;6.23;2.93;;;8.40;85.70;;;;;;5090160;28;20421;-72
2022/02/02 02:26:26;;;;;;;7.23;3.47;;;8.40;85.90;;;;;;5089735;28;20432;-72
2022/02/02 02:55:58;;;;;;;9.93;4.33;;;7.90;90.10;;;;;;5090893;28;20451;-71
2022/02/02 03:01:24;;;;;;;10.50;4.80;;;8.00;90.20;;;;;;5086335;28;20437;-72
2022/02/02 03:31:32;;;;;;;10.27;3.67;;;8.40;85.50;;;;;;5091162;28;20416;-71
2022/02/02 03:51:10;;;;;;;12.90;4.00;;;8.40;84.10;;;;;;5074980;28;20439;-71
2022/02/02 03:59:27;;;;;;;6.27;2.80;;;8.30;83.10;;;;;;5068638;28;20532;-72
2022/02/02 04:02:30;;;;;;;10.50;3.30;;;8.30;83.40;;;;;;5061429;28;20702;-72
2022/02/02 04:04:52;;;;;;;11.67;3.70;;;8.30;83.40;;;;;;5072561;28;20437;-70
2022/02/02 04:07:23;;;;;;;11.50;3.40;;;8.30;83.00;;;;;;5062694;28;20472;-71
2022/02/02 04:09:50;;;;;;;12.67;4.10;;;8.30;82.80;;;;;;5094060;28;20859;-72
2022/02/02 05:53:48;;;;;;;12.07;3.60;;;8.00;82.70;;;;;;5092516;28;20420;-74
2022/02/02 05:56:14;;;;;;;9.50;3.43;;;8.00;82.20;;;;;;5092928;28;20413;-72
2022/02/02 05:58:43;;;;;;;8.43;3.10;;;8.00;81.90;;;;;;5092609;28;20451;-71
2022/02/02 06:01:10;;;;;;;11.43;3.67;;;8.00;82.20;;;;;;5092673;28;20456;-72
2022/02/02 06:03:42;;;;;;;10.60;3.30;;;8.00;81.90;;;;;;5094981;28;20783;-71
2022/02/02 06:06:10;;;;;;;17.43;3.70;;;8.00;81.70;;;;;;5092753;28;20449;-71
2022/02/02 06:08:40;;;;;;;8.63;3.33;;;8.00;81.10;;;;;;5093300;28;20508;-72
2022/02/02 06:11:10;;;;;;;12.83;3.70;;;8.10;80.80;;;;;;5092515;28;20479;-71
2022/02/02 06:13:42;;;;;;;8.00;3.20;;;8.10;80.80;;;;;;5092535;28;20445;-72
2022/02/02 06:16:08;;;;;;;8.10;3.30;;;8.20;80.00;;;;;;5090318;28;20844;-72
2022/02/02 06:18:36;;;;;;;6.80;3.70;;;8.20;79.50;;;;;;5092710;28;20433;-73
2022/02/02 06:21:06;;;;;;;16.03;3.50;;;8.20;79.30;;;;;;5093044;28;20428;-74
2022/02/02 06:23:40;;;;;;;9.67;3.77;;;8.30;78.90;;;;;;5091778;28;20425;-71
2022/02/02 06:26:16;;;;;;;14.07;3.53;;;8.30;78.30;;;;;;5092193;28;20429;-72
2022/02/02 06:28:44;;;;;;;11.47;3.83;;;8.30;78.10;;;;;;5092429;28;20842;-72
2022/02/02 06:31:14;;;;;;;17.20;4.47;;;8.30;78.00;;;;;;5092053;28;20829;-71
2022/02/02 06:33:41;;;;;;;14.23;4.30;;;8.30;78.10;;;;;;5092252;28;20508;-72
2022/02/02 06:36:10;;;;;;;12.57;3.40;;;8.30;78.30;;;;;;5091796;28;20863;-73
2022/02/02 06:38:38;;;;;;;11.90;4.43;;;8.30;78.90;;;;;;5094317;28;20436;-72
2022/02/02 06:41:05;;;;;;;11.80;4.10;;;8.30;79.30;;;;;;5095079;28;20539;-72
2022/02/02 06:43:32;;;;;;;8.53;3.73;;;8.30;79.90;;;;;;5095419;28;20428;-73
2022/02/02 06:46:00;;;;;;;16.57;4.07;;;8.30;80.20;;;;;;5091428;28;20437;-73
2022/02/02 06:48:29;;;;;;;10.20;3.57;;;8.30;80.50;;;;;;5091490;28;20555;-70
2022/02/02 06:51:16;;;;;;;13.87;4.20;;;8.20;80.50;;;;;;5091349;28;20479;-70
2022/02/02 06:54:23;;;;;;;11.20;3.97;;;8.20;80.60;;;;;;5091307;28;20436;-71
2022/02/02 06:57:07;;;;;;;11.63;3.87;;;8.20;81.10;;;;;;5091373;28;20405;-71
2022/02/02 07:02:50;;;;;;;16.27;4.87;;;8.20;81.40;;;;;;5091168;28;20469;-72
2022/02/02 07:13:50;;;;;;;13.03;4.57;;;8.20;82.40;;;;;;5091232;28;20436;-72
2022/02/02 07:25:19;;;;;;;24.37;4.63;;;8.10;83.30;;;;;;5077234;28;20421;-73
2022/02/02 07:27:46;;;;;;;12.13;3.73;;;8.10;83.00;;;;;;5070070;28;20566;-73
2022/02/02 07:30:41;;;;;;;12.47;4.00;;;8.10;82.70;;;;;;5064724;28;20425;-73
2022/02/02 07:33:14;;;;;;;14.63;4.10;;;8.20;82.20;;;;;;5076657;28;20454;-72
2022/02/02 07:36:06;;;;;;;16.93;4.10;;;8.20;82.20;;;;;;5071652;28;20821;-73
2022/02/02 07:38:56;;;;;;;14.80;4.27;;;8.20;82.40;;;;;;5064542;28;20473;-73
2022/02/02 07:41:35;;;;;;;11.73;3.80;;;8.20;82.70;;;;;;5070823;28;20441;-73
2022/02/02 07:44:13;;;;;;;16.73;4.20;;;8.30;82.80;;;;;;5069395;28;20429;-73
2022/02/02 07:46:44;;;;;;;11.37;4.27;;;8.30;82.70;;;;;;5079390;28;20444;-71
2022/02/02 07:49:11;;;;;;;10.27;4.00;;;8.40;83.40;;;;;;5073288;28;20472;-72
2022/02/02 07:51:39;;;;;;;10.00;4.10;;;8.30;84.70;;;;;;5052667;28;20505;-71
2022/02/02 07:54:09;;;;;;;26.83;5.60;;;8.20;86.60;;;;;;5071616;28;20429;-71
2022/02/02 07:56:43;;;;;;;11.90;4.50;;;8.10;87.80;;;;;;5088169;28;20428;-71
2022/02/02 07:59:25;;;;;;;18.50;5.30;;;8.10;88.60;;;;;;5090376;28;20452;-73
2022/02/02 08:01:52;;;;;;;15.37;5.03;;;8.00;89.00;;;;;;5089163;28;20769;-73
2022/02/02 08:04:21;;;;;;;23.87;5.80;;;7.80;88.30;;;;;;5090791;28;20421;-73
2022/02/02 08:06:53;;;;;;;11.00;4.40;;;7.90;88.60;;;;;;5091664;28;20425;-73
2022/02/02 08:09:33;;;;;;;23.63;5.70;;;7.90;88.10;;;;;;5091954;28;20488;-72
2022/02/02 08:12:00;;;;;;;22.57;4.83;;;7.90;87.60;;;;;;5090789;28;20424;-73
2022/02/02 08:14:28;;;;;;;18.40;4.43;;;7.90;87.40;;;;;;5090876;28;20456;-73
2022/02/02 08:16:53;;;;;;;19.07;5.50;;;8.00;87.10;;;;;;5090995;28;20413;-73
2022/02/02 08:19:21;;;;;;;17.47;4.50;;;8.10;86.60;;;;;;5090624;28;21122;-72
2022/02/02 08:21:47;;;;;;;9.17;4.27;;;8.10;85.60;;;;;;5089726;28;20253;-72
2022/02/02 08:24:14;;;;;;;25.80;4.97;;;8.10;85.30;;;;;;5090293;28;20923;-71
2022/02/02 08:26:40;;;;;;;21.03;4.63;;;8.10;85.70;;;;;;5084733;28;20894;-72
2022/02/02 08:29:08;;;;;;;16.10;3.77;;;8.20;85.90;;;;;;5089809;28;20560;-73
2022/02/02 08:31:35;;;;;;;7.13;4.03;;;8.20;86.60;;;;;;5089740;28;20183;-71
2022/02/02 08:34:08;;;;;;;9.83;4.30;;;7.90;87.40;;;;;;5089777;28;20530;-73
2022/02/02 08:36:34;;;;;;;17.30;6.40;;;7.90;88.90;;;;;;5089265;28;20496;-71
2022/02/02 08:41:41;;;;;;;11.60;5.20;;;7.80;89.60;;;;;;5087101;28;20435;-72
2022/02/02 08:44:19;;;;;;;14.53;5.27;;;7.60;90.80;;;;;;5089444;28;20456;-72
2022/02/02 08:46:58;;;;;;;10.90;4.47;;;7.50;91.30;;;;;;5089464;28;20440;-73
2022/02/02 08:49:24;;;;;;;14.17;5.27;;;7.40;91.80;;;;;;5087855;28;21287;-73
2022/02/02 08:51:49;;;;;;;12.40;5.07;;;7.30;92.20;;;;;;5093245;28;20409;-74
2022/02/02 08:54:31;;;;;;;19.50;6.20;;;7.40;92.70;;;;;;5092697;28;20421;-72
2022/02/02 08:59:43;;;;;;;16.63;5.43;;;7.40;92.90;;;;;;5093507;28;20467;-73
2022/02/02 09:02:14;;;;;;;14.53;5.33;;;7.40;93.00;;;;;;5093858;28;20483;-73
2022/02/02 09:07:24;;;;;;;16.23;5.73;;;7.60;92.60;;;;;;5093473;28;20464;-74
2022/02/02 09:10:08;;;;;;;12.73;5.40;;;7.60;91.90;;;;;;5093984;28;20432;-74
2022/02/02 09:23:30;;;;;;;11.27;5.10;;;8.10;88.90;;;;;;5093951;28;20470;-71
2022/02/02 09:34:05;;;;;;;16.03;5.17;;;8.40;87.10;;;;;;5105807;28;20432;-71
2022/02/02 09:36:34;;;;;;;16.40;4.43;;;8.40;86.20;;;;;;5107371;28;20425;-73
2022/02/02 09:39:18;;;;;;;20.70;5.00;;;8.40;85.90;;;;;;5105453;28;20447;-73
2022/02/02 09:44:14;;;;;;;17.47;5.27;;;8.50;84.00;;;;;;5094346;28;20425;-72
2022/02/02 09:49:28;;;;;;;15.57;4.33;;;8.50;84.10;;;;;;5093250;28;20477;-71
2022/02/02 09:52:04;;;;;;;12.50;5.13;;;8.40;83.60;;;;;;5084944;28;20508;-72
2022/02/02 09:54:45;;;;;;;16.10;4.93;;;8.40;83.70;;;;;;5092077;28;20959;-74
2022/02/02 09:57:32;;;;;;;14.63;4.53;;;8.50;83.80;;;;;;5093479;28;20440;-71
2022/02/02 10:00:15;;;;;;;14.03;5.00;;;8.50;84.00;;;;;;5086500;28;20473;-74
2022/02/02 10:05:49;;;;;;;18.57;6.97;;;8.50;83.80;;;;;;5093357;28;20423;-73
2022/02/02 10:14:15;;;;;;;17.83;5.03;;;8.90;80.60;;;;;;5065691;28;20819;-72
2022/02/02 10:16:46;;;;;;;15.23;4.67;;;9.10;80.00;;;;;;5073754;28;20432;-74
2022/02/02 10:19:22;;;;;;;11.07;4.50;;;9.10;79.70;;;;;;5083213;28;20499;-72
2022/02/02 10:21:48;;;;;;;17.70;4.30;;;9.00;79.70;;;;;;5074022;28;20440;-72
2022/02/02 10:24:15;;;;;;;14.80;4.00;;;9.00;79.00;;;;;;5077382;28;20422;-72
2022/02/02 10:26:51;;;;;;;8.93;3.30;;;8.90;78.60;;;;;;5067814;28;20448;-74
2022/02/02 10:29:18;;;;;;;7.27;3.63;;;8.70;80.00;;;;;;5072185;28;20473;-73
2022/02/02 10:31:50;;;;;;;6.67;3.30;;;8.70;81.10;;;;;;5057264;28;20457;-73
2022/02/02 10:34:20;;;;;;;14.73;4.30;;;8.60;82.80;;;;;;5074339;28;20450;-72
2022/02/02 10:37:17;;;;;;;11.10;4.20;;;8.60;83.10;;;;;;5074860;28;20465;-74
2022/02/02 10:39:48;;;;;;;14.90;5.27;;;8.90;83.10;;;;;;5080150;28;20844;-73
2022/02/02 10:42:31;;;;;;;9.23;4.00;;;8.90;83.00;;;;;;5071828;28;20436;-74
2022/02/02 10:45:00;;;;;;;11.50;4.83;;;9.00;83.00;;;;;;5045444;28;20462;-74
2022/02/02 10:47:32;;;;;;;12.67;4.43;;;9.00;82.50;;;;;;5074648;28;20464;-74
2022/02/02 10:50:34;;;;;;;22.30;4.97;;;9.00;83.00;;;;;;5082627;28;20449;-73
2022/02/02 10:53:25;;;;;;;14.13;4.93;;;8.90;82.20;;;;;;5092031;28;20420;-74
2022/02/02 10:56:06;;;;;;;19.60;4.47;;;9.00;82.80;;;;;;5092503;28;20424;-74
2022/02/02 11:01:33;;;;;;;15.40;5.27;;;9.10;81.10;;;;;;5090372;28;20480;-73
2022/02/02 11:06:43;;;;;;;12.27;4.30;;;9.20;76.10;;;;;;5091761;28;21010;-73
2022/02/02 11:09:11;;;;;;;22.90;4.80;;;9.20;75.80;;;;;;5090038;28;20512;-75
2022/02/02 11:11:56;;;;;;;19.70;5.03;;;9.10;75.70;;;;;;5091711;28;20439;-73
2022/02/02 11:14:41;;;;;;;18.37;5.07;;;9.20;75.70;;;;;;5091450;28;20413;-71
2022/02/02 11:17:42;;;;;;;25.30;6.73;;;9.30;75.90;;;;;;5095000;28;20405;-74
2022/02/02 11:20:08;;;;;;;13.87;4.90;;;9.40;75.10;;;;;;5029164;28;21380;-75
2022/02/02 11:22:44;;;;;;;14.80;5.17;;;9.40;75.20;;;;;;5078060;28;20468;-73
2022/02/02 11:25:10;;;;;;;16.10;3.87;;;9.40;76.20;;;;;;5089586;28;20413;-75
2022/02/02 11:27:47;;;;;;;16.33;4.90;;;9.70;75.50;;;;;;5088976;28;20552;-74
2022/02/02 11:30:24;;;;;;;19.00;4.43;;;9.90;74.00;;;;;;5090584;28;20258;-73
2022/02/02 11:32:52;;;;;;;14.47;5.63;;;10.10;74.50;;;;;;5090488;28;20409;-74
2022/02/02 11:35:43;;;;;;;17.00;4.50;;;10.10;73.30;;;;;;5092258;28;20421;-73
2022/02/02 11:38:22;;;;;;;9.63;4.37;;;9.80;73.20;;;;;;5091291;28;20437;-73
2022/02/02 11:47:40;;;;;;;14.73;4.20;;;9.90;74.80;;;;;;5091564;28;21093;-71
2022/02/02 11:50:03;;;;;;;9.97;3.40;;;10.00;74.50;;;;;;5083858;28;20453;-72
2022/02/02 11:52:45;;;;;;;12.53;4.23;;;9.70;70.10;;;;;;5093089;28;20421;-74
2022/02/02 11:55:30;;;;;;;11.13;4.40;;;9.60;72.90;;;;;;5087217;28;20416;-72
2022/02/02 11:58:16;;;;;;;14.33;3.93;;;9.70;73.20;;;;;;5092727;28;20425;-74
2022/02/02 12:01:17;;;;;;;13.53;4.13;;;9.60;71.70;;;;;;5096733;28;20429;-74
2022/02/02 12:09:28;;;;;;;11.30;3.87;;;9.60;74.00;;;;;;5056587;28;20576;-73
2022/02/02 12:56:08;;;;;;;17.67;5.13;;;9.50;75.50;;;;;;5094439;28;20980;-75
2022/02/02 12:58:30;;;;;;;15.47;4.80;;;9.40;77.00;;;;;;5094358;28;20584;-71
2022/02/02 13:01:09;;;;;;;9.77;4.53;;;9.30;77.80;;;;;;5092536;28;20433;-72
2022/02/02 13:03:38;;;;;;;11.50;3.90;;;9.50;78.60;;;;;;5093989;28;20416;-71
2022/02/02 13:06:04;;;;;;;10.27;3.13;;;9.50;77.30;;;;;;5086543;28;20448;-70
2022/02/02 13:08:30;;;;;;;11.33;5.23;;;9.50;75.50;;;;;;5094213;28;20471;-70
2022/02/02 13:10:56;;;;;;;10.63;2.70;;;9.50;75.70;;;;;;5093722;28;20417;-72
2022/02/02 13:13:28;;;;;;;6.37;3.23;;;9.50;76.20;;;;;;5091945;28;20440;-71
2022/02/02 13:16:12;;;;;;;5.83;3.23;;;9.50;77.30;;;;;;5085886;28;20424;-72
2022/02/02 13:18:44;;;;;;;8.73;4.33;;;9.40;78.00;;;;;;5093965;28;20460;-72
2022/02/02 13:21:18;;;;;;;8.13;3.07;;;9.50;78.60;;;;;;5094066;28;20833;-72
2022/02/02 13:24:11;;;;;;;8.53;3.17;;;9.30;78.10;;;;;;5093800;28;20429;-72
2022/02/02 13:26:57;;;;;;;9.17;2.90;;;9.30;81.20;;;;;;5089255;28;20425;-72
2022/02/02 13:29:34;;;;;;;9.93;3.70;;;9.00;83.10;;;;;;5093547;28;20547;-72
2022/02/02 13:32:13;;;;;;;12.20;3.20;;;8.90;84.40;;;;;;5093630;28;20420;-72
2022/02/02 14:26:11;;;;;;;7.67;3.63;;;9.40;83.80;;;;;;5093238;28;20495;-71
2022/02/02 14:31:26;;;;;;;8.93;4.00;;;9.90;83.10;;;;;;5094758;28;20467;-70
2022/02/02 14:33:54;;;;;;;11.87;3.43;;;10.00;82.20;;;;;;5094366;28;20566;-71
2022/02/02 14:36:24;;;;;;;8.60;4.00;;;10.00;81.50;;;;;;5092699;28;20497;-70
2022/02/02 14:41:41;;;;;;;10.63;3.63;;;9.80;82.10;;;;;;5093697;28;20475;-72
2022/02/02 14:46:55;;;;;;;7.27;3.30;;;9.50;83.00;;;;;;5090256;28;20489;-71
2022/02/02 14:49:34;;;;;;;12.27;4.57;;;9.30;84.30;;;;;;5091157;28;20520;-70
2022/02/02 14:52:19;;;;;;;12.20;4.10;;;9.20;84.70;;;;;;5084053;28;20405;-71
2022/02/02 15:27:26;;;;;;;6.73;3.53;;;8.60;87.30;;;;;;5086162;28;20425;-71
2022/02/02 15:32:18;;;;;;;7.30;4.37;;;8.50;87.70;;;;;;5090825;28;20777;-73
2022/02/02 15:34:48;;;;;;;6.10;3.10;;;8.50;88.10;;;;;;5089606;28;20672;-71
2022/02/02 15:37:41;;;;;;;9.53;3.20;;;8.50;88.40;;;;;;5089097;28;20448;-71
2022/02/02 15:40:11;;;;;;;14.03;4.23;;;8.50;88.60;;;;;;5082567;28;20441;-72
2022/02/02 15:57:03;;;;;;;8.43;4.57;;;8.30;89.30;;;;;;5086779;28;20922;-71
2022/02/02 15:59:05;;;;;;;6.20;3.27;;;8.30;89.30;;;;;;5091499;28;20440;-72
2022/02/02 16:04:08;;;;;;;8.07;3.23;;;8.30;89.70;;;;;;5093691;28;20421;-73
2022/02/02 16:06:34;;;;;;;6.70;3.00;;;8.20;89.90;;;;;;5093400;28;20499;-72
2022/02/02 16:09:16;;;;;;;7.20;3.57;;;8.20;90.00;;;;;;5092667;28;20492;-72
2022/02/02 16:11:41;;;;;;;10.70;3.77;;;8.20;89.90;;;;;;5093011;28;20566;-72
2022/02/02 16:14:14;;;;;;;11.43;3.30;;;8.20;89.90;;;;;;5094362;28;20420;-72
2022/02/02 16:17:01;;;;;;;6.97;3.13;;;8.20;89.70;;;;;;5093937;28;20175;-72
2022/02/02 16:19:35;;;;;;;7.67;3.23;;;8.20;89.70;;;;;;5093746;28;20786;-71
2022/02/02 16:25:02;;;;;;;7.10;3.50;;;8.20;89.60;;;;;;5094022;28;20443;-72
2022/02/02 16:35:52;;;;;;;9.53;3.10;;;8.10;90.00;;;;;;5095580;28;20795;-71
2022/02/02 16:38:21;;;;;;;8.00;4.30;;;8.10;90.00;;;;;;5094008;28;20966;-72
2022/02/02 16:40:50;;;;;;;7.13;3.53;;;8.10;90.00;;;;;;5092814;28;20429;-70
2022/02/02 16:43:18;;;;;;;8.33;3.50;;;8.10;90.10;;;;;;5092933;28;20574;-73
2022/02/02 16:45:48;;;;;;;7.50;3.00;;;8.20;90.10;;;;;;5090915;28;20532;-71
2022/02/02 16:48:15;;;;;;;5.10;3.13;;;8.20;90.00;;;;;;5091251;28;20464;-72
2022/02/02 16:50:45;;;;;;;14.13;3.73;;;8.30;89.70;;;;;;5089315;28;20437;-73
2022/02/02 16:55:54;;;;;;;6.03;2.90;;;8.30;89.70;;;;;;5093346;28;21008;-72
2022/02/02 17:33:23;;;;;;;9.03;4.03;;;8.30;89.60;;;;;;5092670;28;20449;-72
2022/02/02 17:42:00;;;;;;;9.90;3.03;;;8.20;90.10;;;;;;5078554;28;20435;-71
2022/02/02 18:20:03;;;;;;;4.80;3.13;;;8.00;91.70;;;;;;5098530;28;20541;-72
2022/02/02 18:22:33;;;;;;;4.17;3.10;;;8.00;91.70;;;;;;5092678;28;20428;-72
2022/02/02 18:25:10;;;;;;;8.87;3.30;;;8.00;91.60;;;;;;5095081;28;20432;-73
2022/02/02 18:27:51;;;;;;;6.50;3.87;;;8.00;91.70;;;;;;5090782;28;20425;-70
2022/02/02 18:30:31;;;;;;;6.83;3.60;;;7.90;92.00;;;;;;5084122;28;20432;-71
2022/02/02 18:33:12;;;;;;;6.43;4.23;;;7.90;92.10;;;;;;5085751;28;20416;-72
2022/02/02 18:35:45;;;;;;;8.13;4.10;;;7.90;92.10;;;;;;5090886;28;21128;-71
2022/02/02 18:46:25;;;;;;;5.73;4.10;;;8.00;92.00;;;;;;5091670;28;20443;-73
2022/02/02 18:51:59;;;;;;;9.87;4.13;;;7.80;92.30;;;;;;5090514;28;20977;-71
2022/02/02 18:54:37;;;;;;;8.20;5.20;;;7.80;92.40;;;;;;5090387;28;20186;-73
2022/02/02 18:59:37;;;;;;;10.23;5.70;;;7.80;92.60;;;;;;5091025;28;20538;-72
2022/02/02 19:02:21;;;;;;;8.07;5.27;;;7.70;92.70;;;;;;5086753;28;20187;-71
2022/02/02 19:38:02;;;;;;;9.30;5.47;;;6.80;94.50;;;;;;5089501;28;20420;-73
2022/02/02 19:40:36;;;;;;;11.10;6.10;;;6.80;94.70;;;;;;5089158;28;20421;-72
2022/02/02 20:02:15;;;;;;;14.77;6.60;;;6.80;94.50;;;;;;5089250;28;20416;-72
2022/02/02 20:05:47;;;;;;;9.63;5.40;;;6.80;94.50;;;;;;5089589;28;20436;-73
2022/02/02 20:12:40;;;;;;;14.60;7.47;;;6.70;94.60;;;;;;5099293;28;20305;-71
2022/02/02 20:15:10;;;;;;;13.60;7.30;;;6.60;94.70;;;;;;5092390;28;20441;-69
2022/02/02 20:17:37;;;;;;;12.17;6.77;;;6.60;94.80;;;;;;5087846;28;20456;-72
2022/02/02 20:20:16;;;;;;;11.20;7.17;;;6.50;94.80;;;;;;5087892;28;20500;-71
2022/02/02 20:22:43;;;;;;;13.60;8.00;;;6.50;94.90;;;;;;5088321;28;20429;-71
2022/02/02 20:25:11;;;;;;;14.97;6.73;;;6.50;95.00;;;;;;5088390;28;20425;-73
2022/02/02 20:27:37;;;;;;;13.37;7.07;;;6.40;95.10;;;;;;5088701;28;20428;-73
2022/02/02 20:30:06;;;;;;;12.43;7.60;;;6.40;95.40;;;;;;5089233;28;20494;-71
2022/02/02 20:32:32;;;;;;;11.33;6.60;;;6.50;95.40;;;;;;5093761;28;20478;-73
2022/02/02 20:34:58;;;;;;;8.60;5.43;;;6.50;95.40;;;;;;5098686;28;20417;-72
2022/02/02 20:37:23;;;;;;;15.60;6.97;;;6.50;95.20;;;;;;5101043;28;20417;-71
2022/02/02 21:09:39;;;;;;;13.33;7.17;;;6.70;94.90;;;;;;5103444;28;20469;-72
2022/02/02 21:14:41;;;;;;;11.03;6.07;;;6.80;95.00;;;;;;5104735;28;20784;-72
2022/02/02 21:17:17;;;;;;;10.43;6.50;;;6.90;95.00;;;;;;5104807;28;20409;-72
2022/02/02 21:22:15;;;;;;;9.20;6.00;;;7.00;95.10;;;;;;5103678;28;20428;-71
2022/02/02 21:24:52;;;;;;;8.40;4.73;;;7.10;94.90;;;;;;5103072;28;20456;-70
2022/02/02 21:27:24;;;;;;;7.03;4.47;;;7.10;94.70;;;;;;5093567;28;20481;-72
2022/02/02 21:29:50;;;;;;;8.70;4.43;;;7.20;94.60;;;;;;5098765;28;20553;-72
2022/02/02 21:32:17;;;;;;;6.00;4.10;;;7.30;94.50;;;;;;5099618;28;20433;-72
2022/02/02 21:34:43;;;;;;;9.83;5.93;;;7.30;94.50;;;;;;5097240;28;20431;-72
2022/02/02 21:37:10;;;;;;;9.90;5.70;;;7.40;94.00;;;;;;5098822;28;20481;-72
2022/02/02 21:39:39;;;;;;;8.13;3.77;;;7.50;93.90;;;;;;5098162;28;20449;-70
2022/02/02 21:42:05;;;;;;;10.60;6.43;;;7.50;94.00;;;;;;5096923;28;20425;-71
2022/02/02 21:44:31;;;;;;;9.97;5.90;;;7.60;94.10;;;;;;5093741;28;20425;-70
2022/02/02 21:46:58;;;;;;;7.53;4.90;;;7.60;94.00;;;;;;5092361;28;20448;-74
2022/02/02 21:49:24;;;;;;;10.07;6.00;;;7.70;93.90;;;;;;5089352;28;20211;-72
2022/02/02 21:52:07;;;;;;;11.00;6.77;;;7.80;93.90;;;;;;5095973;28;20598;-71
2022/02/02 21:54:35;;;;;;;14.43;7.30;;;7.80;93.50;;;;;;5098261;28;20437;-72
2022/02/02 21:57:02;;;;;;;9.50;6.30;;;7.70;93.50;;;;;;5094193;28;20432;-71
2022/02/02 21:59:28;;;;;;;8.90;5.00;;;7.70;93.70;;;;;;5090726;28;20536;-72
2022/02/02 22:01:54;;;;;;;11.00;5.40;;;7.60;94.00;;;;;;5091947;28;20414;-72
2022/02/02 22:04:20;;;;;;;7.27;4.40;;;7.50;94.30;;;;;;5093642;28;20429;-72
2022/02/02 22:06:45;;;;;;;8.33;4.93;;;7.60;94.60;;;;;;5098858;28;20191;-73
2022/02/02 22:09:11;;;;;;;6.30;4.40;;;7.60;94.70;;;;;;5095060;28;20692;-70
2022/02/02 22:11:37;;;;;;;9.93;5.83;;;7.70;94.80;;;;;;5090782;28;20287;-72
2022/02/02 22:14:09;;;;;;;10.13;7.27;;;7.70;94.80;;;;;;5078248;28;20266;-71
2022/02/02 22:16:37;;;;;;;12.30;6.33;;;7.80;94.70;;;;;;5090521;28;20615;-71
2022/02/02 22:19:03;;;;;;;13.13;6.93;;;7.70;94.50;;;;;;5089079;28;20837;-70
2022/02/02 22:21:29;;;;;;;10.43;6.27;;;7.70;94.40;;;;;;5090430;28;20426;-71
2022/02/02 22:23:55;;;;;;;11.97;6.53;;;7.60;94.40;;;;;;5091393;28;20186;-69
2022/02/02 22:26:21;;;;;;;11.80;6.87;;;7.70;94.70;;;;;;5086142;28;20854;-71
2022/02/02 22:28:48;;;;;;;10.40;6.30;;;7.70;94.90;;;;;;5090730;28;20210;-70
2022/02/02 22:31:14;;;;;;;10.20;6.63;;;7.80;94.80;;;;;;5090579;28;20428;-71
2022/02/02 22:33:40;;;;;;;11.20;6.50;;;7.80;94.70;;;;;;5091558;28;20431;-71
2022/02/02 22:36:07;;;;;;;10.77;6.53;;;7.80;94.70;;;;;;5090281;28;20422;-71
2022/02/02 22:38:32;;;;;;;9.13;5.97;;;7.90;94.50;;;;;;5088649;28;20478;-70
2022/02/02 22:40:59;;;;;;;14.77;7.60;;;7.90;94.40;;;;;;5090866;28;20421;-71
2022/02/02 22:43:29;;;;;;;13.23;6.20;;;7.90;94.50;;;;;;5090970;28;20187;-72
2022/02/02 22:45:55;;;;;;;11.67;6.80;;;7.90;94.30;;;;;;5089257;28;20449;-73
2022/02/02 22:48:24;;;;;;;11.10;5.80;;;8.00;94.20;;;;;;5088922;28;20495;-72
2022/02/02 22:50:51;;;;;;;10.30;6.83;;;8.00;94.10;;;;;;5089570;28;20425;-73
2022/02/02 22:53:20;;;;;;;12.30;6.83;;;8.00;94.10;;;;;;5089775;28;20473;-72
2022/02/02 22:55:46;;;;;;;12.70;7.10;;;8.00;94.00;;;;;;5089496;28;20421;-73
2022/02/02 22:58:12;;;;;;;14.50;7.00;;;7.90;94.10;;;;;;5088984;28;20804;-72
2022/02/02 23:00:40;;;;;;;10.73;6.73;;;7.90;94.20;;;;;;5089056;28;20236;-72
2022/02/02 23:03:12;;;;;;;13.30;7.70;;;7.80;94.40;;;;;;5090036;28;21191;-72
2022/02/02 23:05:41;;;;;;;9.70;6.00;;;7.80;94.60;;;;;;5089462;28;20420;-73
2022/02/02 23:08:09;;;;;;;9.53;6.27;;;7.80;94.70;;;;;;5092281;28;20473;-72
2022/02/02 23:10:37;;;;;;;11.77;7.17;;;7.80;94.90;;;;;;5089945;28;20429;-72
2022/02/02 23:13:04;;;;;;;14.20;7.13;;;7.90;94.90;;;;;;5095705;28;20483;-73
2022/02/02 23:15:39;;;;;;;10.40;6.70;;;7.90;95.00;;;;;;5101060;28;20415;-72
2022/02/02 23:18:18;;;;;;;9.27;6.20;;;7.90;94.90;;;;;;5096173;28;20441;-72
2022/02/02 23:20:49;;;;;;;12.27;7.30;;;7.90;94.90;;;;;;5090398;28;20417;-72
2022/02/02 23:23:17;;;;;;;10.97;6.63;;;7.90;95.10;;;;;;5089379;28;20433;-71
2022/02/02 23:25:44;;;;;;;10.17;6.30;;;8.00;94.90;;;;;;5088788;28;20947;-73
2022/02/02 23:28:11;;;;;;;9.23;6.23;;;8.00;94.90;;;;;;5090724;28;20511;-72
2022/02/02 23:30:39;;;;;;;11.97;6.73;;;8.00;94.90;;;;;;5090488;28;20421;-72
2022/02/02 23:33:05;;;;;;;8.80;6.63;;;8.00;95.00;;;;;;5090179;28;20421;-72
2022/02/02 23:35:31;;;;;;;11.57;6.50;;;8.10;94.90;;;;;;5091957;28;20420;-72
2022/02/02 23:37:57;;;;;;;9.40;5.80;;;8.10;94.70;;;;;;5091782;28;20187;-72
2022/02/02 23:40:23;;;;;;;12.00;6.57;;;8.10;94.60;;;;;;5089793;28;20270;-71
2022/02/02 23:42:49;;;;;;;10.43;6.20;;;8.10;94.30;;;;;;5090302;28;20188;-71
2022/02/02 23:45:15;;;;;;;11.37;6.60;;;8.00;94.20;;;;;;5091075;28;20505;-72
2022/02/02 23:47:46;;;;;;;11.53;6.27;;;8.00;94.40;;;;;;5089542;28;20184;-71
2022/02/02 23:50:14;;;;;;;11.97;6.93;;;8.00;94.50;;;;;;5091074;28;20439;-73
2022/02/02 23:52:51;;;;;;;13.23;7.20;;;8.10;94.60;;;;;;5089470;28;20434;-73
2022/02/02 23:55:29;;;;;;;12.13;6.63;;;8.00;94.70;;;;;;5089915;28;20435;-72